Time;durP1;ratioP1;P1;durP2;ratioP2;P2;SDS_P1;SDS_P2;PMS_P1;PMS_P2;Temp;Humidity;BMP_temperature;BMP_pressure;BME280_temperature;BME280_humidity;BME280_pressure;Samples;Min_cycle;Max_cycle;Signal;HPM_P1;HPM_P2
2024/03/12 00:03:48;;;;;;;11.30;8.07;;;;;;;17.35;53.68;100692.31;10447142;28;20025;-58
2024/03/12 00:08:48;;;;;;;10.85;8.52;;;;;;;17.39;54.36;100698.69;10446473;28;20086;-58
2024/03/12 00:13:49;;;;;;;9.95;8.88;;;;;;;17.38;53.75;100705.94;10446576;28;20037;-58
2024/03/12 00:18:53;;;;;;;10.23;7.97;;;;;;;17.36;53.58;100710.78;10446507;28;20017;-58
2024/03/12 00:23:54;;;;;;;9.85;7.82;;;;;;;17.43;53.95;100718.50;10450014;28;20063;-58
2024/03/12 00:28:55;;;;;;;10.90;8.00;;;;;;;17.39;54.89;100728.97;10453493;28;20108;-58
2024/03/12 00:33:58;;;;;;;12.45;9.20;;;;;;;17.41;54.33;100732.19;10453918;28;20056;-57
2024/03/12 00:39:02;;;;;;;9.80;8.13;;;;;;;17.37;53.67;100741.06;10453102;28;20052;-58
2024/03/12 00:44:02;;;;;;;9.70;8.50;;;;;;;17.35;53.80;100751.28;10453363;28;20025;-58
2024/03/12 00:49:03;;;;;;;10.18;8.15;;;;;;;17.38;54.53;100750.69;10452865;28;20029;-58
2024/03/12 00:54:04;;;;;;;10.40;9.03;;;;;;;17.37;53.50;100763.31;10452692;28;20075;-59
2024/03/12 00:59:05;;;;;;;9.60;8.05;;;;;;;17.39;53.66;100774.53;10452437;28;20354;-58
2024/03/12 01:04:06;;;;;;;10.90;8.55;;;;;;;17.40;53.93;100765.41;10451204;28;20022;-59
2024/03/12 01:09:07;;;;;;;10.10;8.02;;;;;;;17.37;53.60;100774.03;10451730;28;20548;-59
2024/03/12 01:14:07;;;;;;;11.80;9.95;;;;;;;17.39;53.76;100774.53;10448063;28;20113;-58
2024/03/12 01:19:07;;;;;;;11.13;8.50;;;;;;;17.37;54.13;100775.91;10451911;28;20025;-59
2024/03/12 01:24:08;;;;;;;11.93;9.50;;;;;;;17.37;54.12;100770.53;10450376;28;20033;-59
2024/03/12 01:29:08;;;;;;;10.73;9.20;;;;;;;17.37;54.24;100779.38;10451328;28;20032;-59
2024/03/12 01:34:09;;;;;;;9.83;8.77;;;;;;;17.37;53.76;100770.53;10451416;28;20162;-58
2024/03/12 01:39:09;;;;;;;11.07;8.63;;;;;;;17.39;54.06;100774.53;10450967;28;20372;-59
2024/03/12 01:44:09;;;;;;;11.00;8.93;;;;;;;17.38;54.70;100774.81;10451059;28;20326;-59
2024/03/12 01:49:10;;;;;;;10.75;8.00;;;;;;;17.38;53.31;100772.13;10450436;28;20497;-59
2024/03/12 01:54:11;;;;;;;10.27;8.40;;;;;;;17.37;53.98;100781.28;10449493;28;20544;-59
2024/03/12 01:59:12;;;;;;;11.95;8.80;;;;;;;17.35;53.33;100789.59;10449966;28;20032;-58
2024/03/12 02:04:14;;;;;;;10.35;8.43;;;;;;;17.37;53.46;100800.81;10449298;28;20194;-59
2024/03/12 02:09:15;;;;;;;12.18;9.02;;;;;;;17.38;53.11;100798.94;10449425;28;20036;-58
2024/03/12 02:14:16;;;;;;;12.57;9.37;;;;;;;17.37;54.20;100797.34;10449573;28;20385;-59
2024/03/12 02:19:18;;;;;;;11.38;9.00;;;;;;;17.40;53.16;100797.56;10449603;28;20623;-59
2024/03/12 02:24:18;;;;;;;11.40;8.65;;;;;;;17.38;53.30;100798.94;10449587;28;20017;-58
2024/03/12 02:29:19;;;;;;;9.37;7.87;;;;;;;17.41;53.90;100798.41;10448939;28;20472;-58
2024/03/12 02:34:19;;;;;;;11.15;8.90;;;;;;;17.39;53.43;100806.69;10449095;28;20336;-58
2024/03/12 02:39:21;;;;;;;12.10;8.95;;;;;;;17.36;53.44;100806.47;10447499;28;20021;-59
2024/03/12 02:44:21;;;;;;;11.18;8.32;;;;;;;17.38;53.61;100823.88;10448684;28;20025;-59
2024/03/12 02:49:23;;;;;;;9.67;8.67;;;;;;;17.36;54.13;100820.69;10448045;28;20029;-59
2024/03/12 02:54:26;;;;;;;10.27;8.30;;;;;;;17.38;53.94;100818.50;10448667;28;20437;-58
2024/03/12 02:59:27;;;;;;;10.40;7.80;;;;;;;17.41;52.72;100830.56;10448024;28;20025;-58
2024/03/12 03:04:28;;;;;;;10.00;8.25;;;;;;;17.41;53.59;100827.88;10448214;28;20480;-59
2024/03/12 03:09:29;;;;;;;12.57;8.90;;;;;;;17.39;52.86;100828.13;10447603;28;20093;-58
2024/03/12 03:14:29;;;;;;;10.85;8.32;;;;;;;17.37;52.77;100833.00;10447779;28;20125;-59
2024/03/12 03:19:30;;;;;;;10.93;8.02;;;;;;;17.36;53.17;100834.06;10447433;28;20021;-58
2024/03/12 03:24:30;;;;;;;11.17;8.63;;;;;;;17.36;53.27;100839.44;10446566;28;20093;-59
2024/03/12 03:29:35;;;;;;;9.63;7.40;;;;;;;17.36;52.54;100839.44;10447300;28;20427;-59
2024/03/12 03:34:37;;;;;;;10.27;7.65;;;;;;;17.35;53.04;100840.53;10447481;28;20297;-58
2024/03/12 03:39:37;;;;;;;9.15;7.38;;;;;;;17.34;54.15;100849.66;10447147;28;20040;-58
2024/03/12 03:44:37;;;;;;;10.15;8.00;;;;;;;17.34;53.07;100849.66;10447722;28;20033;-59
2024/03/12 03:49:38;;;;;;;9.53;8.40;;;;;;;17.38;53.29;100850.66;10446820;28;20024;-59
2024/03/12 03:54:38;;;;;;;9.20;7.70;;;;;;;17.37;53.13;100851.75;10447598;28;20775;-59
2024/03/12 03:59:40;;;;;;;10.38;8.15;;;;;;;17.33;53.55;100863.34;10450685;28;20112;-59
2024/03/12 04:04:42;;;;;;;8.15;7.13;;;;;;;17.38;53.30;100876.66;10455029;28;20514;-58
2024/03/12 04:09:43;;;;;;;13.07;8.27;;;;;;;17.37;53.03;100877.75;10454210;28;20029;-59
2024/03/12 04:14:43;;;;;;;9.35;7.63;;;;;;;17.36;53.90;100881.53;10453643;28;20033;-58
2024/03/12 04:19:47;;;;;;;8.07;7.28;;;;;;;17.37;52.56;100881.22;10453357;28;20033;-58
2024/03/12 04:24:47;;;;;;;9.07;6.10;;;;;;;17.38;53.12;100900.78;10452223;28;20036;-59
2024/03/12 04:29:48;;;;;;;10.20;6.87;;;;;;;17.42;53.92;100905.31;10452892;28;20098;-60
2024/03/12 04:34:48;;;;;;;11.17;6.83;;;;;;;17.42;53.57;100902.66;10452457;28;20397;-60
2024/03/12 04:39:49;;;;;;;8.87;6.73;;;;;;;17.41;54.25;100910.97;10452806;28;20723;-60
2024/03/12 04:44:50;;;;;;;7.35;6.22;;;;;;;17.37;52.73;100910.72;10451350;28;20283;-59
2024/03/12 04:49:52;;;;;;;9.57;7.57;;;;;;;17.36;54.35;100914.47;10452268;28;20371;-60
2024/03/12 04:54:53;;;;;;;8.05;6.03;;;;;;;17.37;53.37;100926.81;10452344;28;20033;-60
2024/03/12 04:59:54;;;;;;;9.57;8.57;;;;;;;17.32;53.64;100928.75;10452118;28;20028;-59
2024/03/12 05:04:54;;;;;;;10.05;6.38;;;;;;;17.29;53.84;100942.72;10452762;28;20271;-59
2024/03/12 05:09:55;;;;;;;7.87;6.17;;;;;;;17.23;54.31;100949.97;10451072;28;20029;-59
2024/03/12 05:14:55;;;;;;;7.20;6.17;;;;;;;17.27;54.72;100947.53;10450270;28;20378;-59
2024/03/12 05:19:55;;;;;;;7.18;6.38;;;;;;;17.27;53.81;100950.19;10449477;28;20279;-59
2024/03/12 05:24:56;;;;;;;8.35;6.63;;;;;;;17.29;54.59;100967.63;10450358;28;20075;-59
2024/03/12 05:29:56;;;;;;;8.43;6.10;;;;;;;17.33;53.42;100974.03;10450084;28;20040;-59
2024/03/12 05:34:58;;;;;;;8.37;6.30;;;;;;;17.32;53.19;100979.66;10450759;28;20567;-59
2024/03/12 05:40:13;;;;;;;8.25;5.82;;;;;;;17.36;54.16;100996.78;10450904;28;20279;-60
2024/03/12 05:50:32;;;;;;;9.43;6.88;;;;;;;17.34;53.10;101012.34;10450275;28;20472;-59
2024/03/12 05:55:32;;;;;;;8.00;6.40;;;;;;;17.34;53.24;101021.19;10450678;28;20021;-59
2024/03/12 06:00:33;;;;;;;9.77;6.97;;;;;;;17.33;53.19;101029.50;10450170;28;20271;-59
2024/03/12 06:05:33;;;;;;;13.17;7.53;;;;;;;17.28;54.03;101024.16;10450756;28;20021;-60
2024/03/12 06:10:33;;;;;;;12.90;5.70;;;;;;;17.38;54.39;101030.25;10449391;28;20284;-59
2024/03/12 06:15:33;;;;;;;12.25;6.53;;;;;;;17.43;55.02;101029.44;10449518;28;21000;-61
2024/03/12 06:20:34;;;;;;;12.33;7.37;;;;;;;17.44;54.55;101039.88;10446201;28;20017;-61
2024/03/12 06:25:34;;;;;;;17.77;8.73;;;;;;;17.40;54.61;101049.53;10449862;28;20693;-60
2024/03/12 06:30:35;;;;;;;12.97;6.37;;;;;;;17.34;54.28;101053.34;10448619;28;20021;-62
2024/03/12 06:35:35;;;;;;;17.05;7.13;;;;;;;17.30;54.79;101055.00;10449406;28;20334;-60
2024/03/12 06:40:36;;;;;;;12.45;6.93;;;;;;;17.27;54.68;101066.25;10448550;28;20484;-62
2024/03/12 06:45:38;;;;;;;15.65;7.68;;;;;;;17.23;55.00;101073.25;10448794;28;20047;-61
2024/03/12 06:50:39;;;;;;;16.10;7.72;;;;;;;17.16;55.70;101070.06;10448372;28;20017;-61
2024/03/12 06:55:40;;;;;;;27.50;9.88;;;;;;;17.12;54.83;101083.22;10448510;28;20025;-61
2024/03/12 07:00:42;;;;;;;20.83;7.97;;;;;;;17.11;55.68;101086.97;10446832;28;20029;-61
2024/03/12 07:05:48;;;;;;;22.52;7.20;;;;;;;17.10;56.08;101089.94;10448076;28;20054;-62
2024/03/12 07:10:50;;;;;;;25.70;7.95;;;;;;;17.12;55.73;101101.16;10446832;28;20083;-61
2024/03/12 07:15:50;;;;;;;25.45;8.07;;;;;;;17.06;55.44;101102.28;10441509;28;20044;-61
2024/03/12 07:20:54;;;;;;;19.13;8.02;;;;;;;17.05;55.02;101106.84;10446543;28;20362;-61
2024/03/12 07:25:55;;;;;;;16.27;6.80;;;;;;;17.05;55.27;101112.22;10435613;28;20116;-61
2024/03/12 07:30:56;;;;;;;15.23;6.45;;;;;;;17.09;55.38;101115.13;10442499;28;20028;-60
2024/03/12 07:35:56;;;;;;;13.43;7.33;;;;;;;17.04;54.31;101126.66;10449129;28;20142;-59
2024/03/12 07:40:56;;;;;;;17.80;8.13;;;;;;;17.03;54.87;101133.09;10454348;28;20275;-61
2024/03/12 07:45:56;;;;;;;17.07;8.07;;;;;;;17.06;53.96;101127.19;10454463;28;20288;-60
2024/03/12 07:50:58;;;;;;;20.97;7.33;;;;;;;17.06;54.30;101134.44;10453188;28;20297;-61
2024/03/12 07:56:00;;;;;;;11.05;6.50;;;;;;;17.08;54.74;101138.44;10453660;28;20291;-60
2024/03/12 08:01:01;;;;;;;13.40;7.00;;;;;;;17.09;54.01;101144.59;10451542;28;20115;-61
2024/03/12 08:06:01;;;;;;;12.73;7.80;;;;;;;17.12;55.08;101149.41;10453303;28;20028;-61
2024/03/12 08:11:04;;;;;;;12.77;7.28;;;;;;;17.13;53.74;101153.69;10452715;28;20124;-60
2024/03/12 08:16:05;;;;;;;13.32;6.80;;;;;;;17.19;54.19;101157.97;10451637;28;20020;-61
2024/03/12 08:21:05;;;;;;;12.45;6.57;;;;;;;17.20;54.77;101165.72;10452226;28;20017;-61
2024/03/12 08:26:07;;;;;;;9.57;6.10;;;;;;;17.18;54.25;101167.06;10451434;28;20024;-60
2024/03/12 08:31:07;;;;;;;10.85;6.13;;;;;;;17.15;53.52;101168.41;10452411;28;20017;-61
2024/03/12 08:36:08;;;;;;;20.43;7.33;;;;;;;17.19;54.14;101168.69;10452057;28;20495;-60
2024/03/12 08:41:09;;;;;;;11.43;6.15;;;;;;;17.16;53.68;101177.25;10451455;28;20267;-57
2024/03/12 08:46:10;;;;;;;10.73;6.38;;;;;;;17.12;54.14;101177.00;10451418;28;20456;-60
2024/03/12 08:51:13;;;;;;;8.55;5.93;;;;;;;17.10;53.58;101187.19;10449548;28;20028;-60
2024/03/12 08:56:14;;;;;;;12.32;6.80;;;;;;;17.09;53.86;101185.59;10450907;28;20037;-57
2024/03/12 09:01:14;;;;;;;11.45;6.13;;;;;;;17.11;54.24;101193.34;10451299;28;20017;-60
2024/03/12 09:06:15;;;;;;;9.27;6.80;;;;;;;17.14;53.84;101198.94;10450925;28;20032;-61
2024/03/12 09:11:20;;;;;;;11.45;6.07;;;;;;;17.10;54.23;101191.75;10450130;28;20300;-59
2024/03/12 09:16:21;;;;;;;7.50;5.80;;;;;;;17.13;54.08;101200.03;10449255;28;20028;-60
2024/03/12 09:21:22;;;;;;;11.32;5.95;;;;;;;17.16;52.84;101196.00;10450699;28;20020;-60
2024/03/12 09:26:22;;;;;;;9.32;6.60;;;;;;;17.17;53.51;101193.06;10449645;28;20037;-61
2024/03/12 09:31:23;;;;;;;11.90;6.70;;;;;;;17.21;52.81;101201.34;10449998;28;20124;-59
2024/03/12 09:36:24;;;;;;;9.23;5.97;;;;;;;17.23;53.22;101207.25;10449961;28;20282;-60
2024/03/12 09:41:25;;;;;;;9.10;5.88;;;;;;;17.21;53.39;101207.50;10449596;28;20013;-60
2024/03/12 09:46:26;;;;;;;7.85;6.13;;;;;;;17.17;53.71;101219.06;10449354;28;20025;-60
2024/03/12 09:51:26;;;;;;;7.60;5.90;;;;;;;17.19;53.57;101214.22;10449291;28;20066;-61
2024/03/12 09:56:27;;;;;;;11.68;5.97;;;;;;;17.17;54.08;101222.53;10448726;28;20344;-61
2024/03/12 10:01:28;;;;;;;8.75;5.75;;;;;;;17.16;53.39;101223.59;10448881;28;20112;-60
2024/03/12 10:06:29;;;;;;;7.22;5.18;;;;;;;17.22;52.80;101227.06;10448059;28;20424;-61
2024/03/12 10:11:30;;;;;;;10.15;6.22;;;;;;;17.21;52.64;101226.28;10447971;28;20132;-60
2024/03/12 10:16:32;;;;;;;9.60;5.85;;;;;;;17.20;53.18;101218.50;10446506;28;20060;-61
2024/03/12 10:21:33;;;;;;;8.57;6.10;;;;;;;17.24;53.19;101224.91;10448944;28;20122;-59
2024/03/12 10:26:35;;;;;;;9.38;6.10;;;;;;;17.25;53.87;101229.19;10446101;28;20020;-60
2024/03/12 10:31:39;;;;;;;7.70;5.28;;;;;;;17.25;53.35;101221.97;10447423;28;20045;-60
2024/03/12 10:36:42;;;;;;;8.27;5.53;;;;;;;17.29;52.95;101224.13;10447070;28;20028;-60
2024/03/12 10:41:43;;;;;;;7.88;5.25;;;;;;;17.28;53.41;101230.53;10447226;28;20028;-60
2024/03/12 10:46:44;;;;;;;8.13;5.13;;;;;;;17.26;52.46;101230.81;10445650;28;20033;-60
2024/03/12 10:51:45;;;;;;;8.10;4.85;;;;;;;17.30;53.32;101241.81;10446431;28;20287;-60
2024/03/12 10:56:46;;;;;;;6.82;4.90;;;;;;;17.25;53.51;101234.56;10444877;28;20025;-60
2024/03/12 11:01:47;;;;;;;8.30;5.47;;;;;;;17.26;52.24;101236.16;10447216;28;20116;-60
2024/03/12 11:06:48;;;;;;;9.32;5.88;;;;;;;17.22;53.18;101249.31;10446928;28;20024;-60
2024/03/12 11:11:49;;;;;;;9.18;6.82;;;;;;;17.20;52.86;101242.63;10447590;28;20041;-60
2024/03/12 11:16:49;;;;;;;6.85;5.15;;;;;;;17.17;53.75;101235.94;10446094;28;20025;-60
2024/03/12 11:22:01;;;;;;;7.00;5.15;;;;;;;17.14;53.81;101238.34;10447539;28;20400;-60
2024/03/12 11:27:03;;;;;;;6.95;5.32;;;;;;;17.19;54.25;101238.34;10446288;28;20037;-60
2024/03/12 11:32:03;;;;;;;6.30;5.47;;;;;;;17.17;53.31;101229.78;10432414;28;20029;-60
2024/03/12 11:37:14;;;;;;;8.65;5.97;;;;;;;17.13;53.63;101237.53;10445811;28;20028;-60
2024/03/12 11:42:15;;;;;;;7.35;5.85;;;;;;;17.15;53.99;101245.31;10444284;28;20626;-59
2024/03/12 11:47:34;;;;;;;8.30;5.22;;;;;;;17.18;53.60;101232.19;10446678;28;20029;-60
2024/03/12 11:52:34;;;;;;;8.25;6.18;;;;;;;17.21;53.20;101237.00;10447169;28;20079;-60
2024/03/12 11:57:35;;;;;;;7.97;5.43;;;;;;;17.20;53.80;101238.06;10446786;28;20530;-60
2024/03/12 12:02:40;;;;;;;7.23;5.37;;;;;;;17.29;53.03;101227.59;10446927;28;20029;-60
2024/03/12 12:07:41;;;;;;;8.50;5.85;;;;;;;17.35;52.83;101226.47;10439087;28;20361;-60
2024/03/12 12:12:43;;;;;;;8.18;5.47;;;;;;;17.34;52.62;101222.19;10436794;28;20043;-60
2024/03/12 12:17:45;;;;;;;7.90;5.90;;;;;;;17.28;53.18;101211.75;10443795;28;20143;-59
2024/03/12 12:22:46;;;;;;;7.75;5.38;;;;;;;17.27;53.29;101216.31;10451584;28;20032;-60
2024/03/12 12:27:46;;;;;;;8.90;5.63;;;;;;;17.26;52.45;101209.38;10451026;28;20031;-60
2024/03/12 12:32:49;;;;;;;7.05;5.32;;;;;;;17.29;53.25;101213.41;10451483;28;20111;-58
2024/03/12 12:37:50;;;;;;;6.32;4.63;;;;;;;17.34;53.07;101208.81;10451138;28;20441;-60
2024/03/12 12:42:50;;;;;;;7.63;4.97;;;;;;;17.42;53.50;101204.75;10450826;28;20595;-60
2024/03/12 12:47:51;;;;;;;9.48;5.93;;;;;;;17.56;53.42;101210.31;10451277;28;20039;-61
2024/03/12 12:53:09;;;;;;;8.33;5.70;;;;;;;17.64;53.27;101215.06;10451109;28;20035;-61
2024/03/12 12:58:10;;;;;;;8.77;6.63;;;;;;;17.43;53.99;101201.78;10449653;28;20282;-61
2024/03/12 13:03:18;;;;;;;7.28;5.95;;;;;;;17.40;58.54;101207.69;10451863;28;20039;-61
2024/03/12 13:08:23;;;;;;;9.80;6.10;;;;;;;17.41;57.44;101200.47;10450286;28;20162;-61
2024/03/12 13:13:25;;;;;;;8.10;5.68;;;;;;;17.38;56.38;101195.63;10449214;28;20083;-61
2024/03/12 13:18:25;;;;;;;7.63;6.13;;;;;;;17.34;57.13;101190.03;10441781;28;20029;-62
2024/03/12 13:23:26;;;;;;;12.83;6.33;;;;;;;17.35;55.18;101205.03;10451296;28;20021;-61
2024/03/12 13:28:26;;;;;;;12.53;7.30;;;;;;;17.47;56.37;101194.00;10449284;28;20279;-61
2024/03/12 13:33:27;;;;;;;23.27;8.27;;;;;;;17.53;56.08;101198.28;10447758;28;20321;-61
2024/03/12 13:38:27;;;;;;;28.10;8.97;;;;;;;17.56;56.46;101199.59;10449981;28;20147;-61
2024/03/12 13:43:29;;;;;;;40.97;9.43;;;;;;;17.49;56.96;101197.19;10450069;28;20267;-61
2024/03/12 13:48:30;;;;;;;52.00;11.98;;;;;;;17.51;57.45;101195.03;10450540;28;20321;-59
2024/03/12 13:53:31;;;;;;;56.03;14.80;;;;;;;17.50;56.21;101190.75;10450301;28;20025;-61
2024/03/12 13:58:32;;;;;;;38.00;10.68;;;;;;;17.41;56.34;101184.38;10450409;28;20025;-61
2024/03/12 14:03:32;;;;;;;45.20;11.45;;;;;;;17.40;58.07;101185.44;10449773;28;20017;-61
2024/03/12 14:08:32;;;;;;;40.17;12.15;;;;;;;17.39;57.52;101179.28;10448680;28;20025;-62
2024/03/12 14:13:34;;;;;;;26.27;10.40;;;;;;;17.34;56.83;101183.88;10449213;28;20095;-62
2024/03/12 14:18:37;;;;;;;33.35;11.70;;;;;;;17.35;57.13;101186.28;10448445;28;20751;-61
2024/03/12 14:23:37;;;;;;;40.53;13.55;;;;;;;17.31;56.20;101187.91;10447805;28;20051;-61
2024/03/12 14:28:38;;;;;;;35.60;11.60;;;;;;;17.13;56.98;101188.50;10449183;28;20522;-62
2024/03/12 14:33:38;;;;;;;57.00;13.87;;;;;;;17.11;57.96;101180.75;10448891;28;20283;-63
2024/03/12 14:38:39;;;;;;;57.10;15.47;;;;;;;17.16;57.79;101177.25;10447587;28;20287;-63
2024/03/12 14:43:40;;;;;;;50.95;19.33;;;;;;;17.30;59.98;101172.13;10447670;28;20307;-64
2024/03/12 14:48:40;;;;;;;50.40;15.67;;;;;;;17.33;60.50;101171.56;10448257;28;20409;-61
2024/03/12 14:53:41;;;;;;;42.80;14.77;;;;;;;17.34;58.43;101165.91;10448185;28;20378;-62
2024/03/12 14:58:43;;;;;;;33.95;14.43;;;;;;;17.37;56.92;101159.19;10448230;28;20536;-61
2024/03/12 15:03:43;;;;;;;35.40;12.80;;;;;;;17.52;56.13;101154.56;10448187;28;20017;-61
2024/03/12 15:08:44;;;;;;;36.63;13.27;;;;;;;17.39;55.99;101162.41;10448003;28;20016;-61
2024/03/12 15:13:44;;;;;;;35.80;14.13;;;;;;;17.30;56.59;101161.38;10446333;28;20063;-59
2024/03/12 15:18:45;;;;;;;33.67;15.38;;;;;;;17.25;56.58;101156.84;10446774;28;20135;-61
2024/03/12 15:23:46;;;;;;;29.50;14.20;;;;;;;17.25;56.08;101154.97;10448193;28;20025;-61
2024/03/12 15:28:48;;;;;;;29.83;13.65;;;;;;;17.28;55.52;101156.28;10447314;28;20283;-60
2024/03/12 15:33:51;;;;;;;39.33;14.80;;;;;;;17.42;55.10;101159.97;10447282;28;20036;-58
2024/03/12 15:38:51;;;;;;;34.58;14.75;;;;;;;17.45;55.47;101158.63;10446529;28;20116;-59
2024/03/12 15:43:54;;;;;;;41.50;14.75;;;;;;;17.40;56.47;101148.72;10447174;28;20029;-58
2024/03/12 15:48:55;;;;;;;27.73;12.95;;;;;;;17.35;55.46;101145.28;10446305;28;20055;-58
2024/03/12 15:53:55;;;;;;;37.60;15.25;;;;;;;17.31;56.60;101138.88;10450676;28;20028;-57
2024/03/12 15:58:55;;;;;;;32.13;13.15;;;;;;;17.25;55.34;101144.25;10445254;28;20025;-60
2024/03/12 16:03:56;;;;;;;22.53;13.43;;;;;;;17.24;55.63;101139.97;10452230;28;20020;-56
2024/03/12 16:08:58;;;;;;;25.48;12.52;;;;;;;17.21;54.76;101140.53;10452216;28;20275;-56
2024/03/12 16:13:59;;;;;;;23.63;12.90;;;;;;;17.18;55.40;101137.59;10448111;28;20711;-57
2024/03/12 16:18:59;;;;;;;18.05;10.73;;;;;;;17.16;56.44;101137.84;10443193;28;20024;-58
2024/03/12 16:23:59;;;;;;;24.00;10.97;;;;;;;17.12;55.82;101131.44;10450512;28;20492;-58
2024/03/12 16:29:00;;;;;;;22.45;12.27;;;;;;;17.11;55.41;101131.72;10444360;28;20287;-57
2024/03/12 16:34:00;;;;;;;20.23;12.75;;;;;;;17.16;54.92;101139.72;10452045;28;20475;-58
2024/03/12 16:39:04;;;;;;;25.42;12.38;;;;;;;17.24;56.46;101144.53;10452591;28;20115;-57
2024/03/12 16:44:05;;;;;;;24.00;11.15;;;;;;;17.23;55.48;101145.59;10451675;28;20388;-59
2024/03/12 16:49:05;;;;;;;17.67;10.63;;;;;;;17.22;56.24;101152.03;10453185;28;20025;-58
2024/03/12 16:54:06;;;;;;;23.90;12.00;;;;;;;17.20;54.90;101146.97;10451900;28;20040;-59
2024/03/12 16:59:07;;;;;;;21.65;11.88;;;;;;;17.20;55.66;101143.47;10452427;28;20275;-58
2024/03/12 17:04:10;;;;;;;18.95;10.32;;;;;;;17.22;55.66;101139.44;10451976;28;20029;-59
2024/03/12 17:09:10;;;;;;;17.65;11.25;;;;;;;17.22;55.45;101139.44;10439488;28;20025;-60
2024/03/12 17:14:12;;;;;;;26.05;13.77;;;;;;;17.39;59.82;101144.44;10449740;28;20519;-59
2024/03/12 17:19:14;;;;;;;28.40;14.60;;;;;;;17.43;58.15;101147.38;10450198;28;20446;-57
2024/03/12 17:24:15;;;;;;;24.75;13.50;;;;;;;17.61;57.67;101136.00;10450530;28;20431;-57
2024/03/12 17:29:15;;;;;;;26.15;12.52;;;;;;;17.67;57.63;101131.41;10448882;28;20098;-57
2024/03/12 17:34:16;;;;;;;28.23;13.45;;;;;;;17.60;58.10;101126.34;10448885;28;20033;-58
2024/03/12 17:39:18;;;;;;;19.50;11.90;;;;;;;17.52;56.33;101129.59;10449318;28;20059;-60
2024/03/12 17:44:19;;;;;;;17.25;12.13;;;;;;;17.48;56.63;101124.00;10449666;28;20025;-60
2024/03/12 17:49:39;;;;;;;17.67;11.43;;;;;;;17.49;57.90;101132.84;10448356;28;20021;-61
2024/03/12 17:54:40;;;;;;;17.92;11.18;;;;;;;17.46;57.64;101139.56;10448287;28;20412;-60
2024/03/12 17:59:42;;;;;;;18.85;11.43;;;;;;;17.43;58.05;101145.50;10447055;28;20021;-62
2024/03/12 18:04:44;;;;;;;23.75;11.60;;;;;;;17.40;57.45;101145.22;10446654;28;20485;-60
2024/03/12 18:09:47;;;;;;;18.48;10.77;;;;;;;17.43;57.59;101142.03;10446471;28;20039;-60
2024/03/12 18:14:48;;;;;;;20.20;11.48;;;;;;;17.34;57.46;101149.03;10444091;28;20057;-60
2024/03/12 18:19:49;;;;;;;25.92;11.13;;;;;;;17.30;58.70;101143.44;10444149;28;20932;-60
2024/03/12 18:24:51;;;;;;;17.92;9.10;;;;;;;17.24;57.20;101149.88;10439813;28;20091;-61
2024/03/12 18:29:52;;;;;;;18.30;10.10;;;;;;;17.20;57.41;101148.84;10445605;28;20107;-60
2024/03/12 18:34:52;;;;;;;13.00;10.05;;;;;;;17.19;56.79;101149.91;10445020;28;20029;-59
2024/03/12 18:39:52;;;;;;;17.97;11.03;;;;;;;17.12;58.27;101136.00;10444228;28;20060;-60
2024/03/12 18:44:53;;;;;;;20.75;10.45;;;;;;;17.09;57.16;101142.72;10447572;28;20299;-60
2024/03/12 18:49:55;;;;;;;17.03;9.23;;;;;;;17.06;58.53;101145.97;10448297;28;20082;-59
2024/03/12 18:54:56;;;;;;;15.88;8.68;;;;;;;17.05;57.78;101138.16;10448400;28;20287;-61
2024/03/12 18:59:57;;;;;;;15.23;9.07;;;;;;;17.09;58.24;101136.56;10447964;28;20021;-60
2024/03/12 19:05:05;;;;;;;14.07;8.55;;;;;;;17.11;56.38;101118.31;10448451;28;20560;-60
2024/03/12 19:10:07;;;;;;;15.13;9.67;;;;;;;17.11;57.46;101103.06;10447847;28;20036;-60
2024/03/12 19:15:14;;;;;;;15.48;8.70;;;;;;;17.13;57.09;101108.94;10447805;28;20056;-60
2024/03/12 19:20:15;;;;;;;11.68;9.02;;;;;;;17.15;57.20;101100.63;10442336;28;20043;-58
2024/03/12 19:25:17;;;;;;;16.15;8.98;;;;;;;17.21;56.00;101096.84;10446411;28;20070;-60
2024/03/12 19:30:18;;;;;;;22.05;10.85;;;;;;;17.30;56.78;101099.75;10447423;28;20029;-61
2024/03/12 19:35:19;;;;;;;15.52;8.70;;;;;;;17.34;56.53;101092.75;10455337;28;20028;-61
2024/03/12 19:40:21;;;;;;;15.45;8.75;;;;;;;17.34;57.05;101101.59;10454879;28;20112;-60
2024/03/12 19:45:27;;;;;;;10.80;8.65;;;;;;;17.31;57.33;101093.31;10455110;28;20060;-60
2024/03/12 19:50:28;;;;;;;10.82;7.57;;;;;;;17.29;57.47;101090.91;10454573;28;20025;-60
2024/03/12 19:55:31;;;;;;;18.52;8.68;;;;;;;17.24;56.33;101105.13;10439142;28;20528;-60
2024/03/12 20:00:32;;;;;;;14.70;9.25;;;;;;;17.22;56.38;101104.59;10447888;28;20029;-60
2024/03/12 20:05:36;;;;;;;12.48;8.02;;;;;;;17.22;56.47;101103.81;10454048;28;20524;-60
2024/03/12 20:10:37;;;;;;;11.98;8.07;;;;;;;17.21;56.45;101100.31;10453244;28;20116;-60
2024/03/12 20:15:43;;;;;;;11.73;7.72;;;;;;;17.20;57.44;101103.28;10444287;28;20587;-61
2024/03/12 20:20:44;;;;;;;16.25;7.35;;;;;;;17.22;56.09;101111.84;10452062;28;20025;-60
2024/03/12 20:25:45;;;;;;;10.77;7.45;;;;;;;17.24;57.30;101098.97;10452535;28;20024;-60
2024/03/12 20:30:47;;;;;;;9.38;8.02;;;;;;;17.23;56.59;101100.84;10449798;28;20029;-60
2024/03/12 20:35:48;;;;;;;10.02;7.50;;;;;;;17.38;55.69;101096.47;10452246;28;20021;-59
2024/03/12 20:40:48;;;;;;;10.13;7.13;;;;;;;17.47;56.87;101098.28;10452596;28;20495;-60
2024/03/12 20:45:49;;;;;;;13.27;8.67;;;;;;;17.31;55.69;101094.09;10453474;28;20362;-61
2024/03/12 20:50:49;;;;;;;11.80;7.63;;;;;;;17.28;55.83;101115.28;10446397;28;20746;-61
2024/03/12 20:55:49;;;;;;;10.52;7.15;;;;;;;17.28;56.48;101117.97;10449512;28;20029;-61
2024/03/12 21:00:51;;;;;;;8.43;6.23;;;;;;;17.24;56.30;101112.34;10451365;28;20391;-61
2024/03/12 21:05:51;;;;;;;9.88;6.72;;;;;;;17.22;55.96;101115.31;10452523;28;20371;-61
2024/03/12 21:10:51;;;;;;;9.73;7.03;;;;;;;17.21;56.66;101107.56;10452023;28;20017;-61
2024/03/12 21:15:52;;;;;;;8.00;6.22;;;;;;;17.20;55.77;101096.03;10452412;28;20041;-61
2024/03/12 21:20:54;;;;;;;8.87;6.40;;;;;;;17.25;55.35;101096.00;10452342;28;20389;-61
2024/03/12 21:25:55;;;;;;;7.53;6.43;;;;;;;17.26;55.73;101104.84;10452029;28;20289;-60
2024/03/12 21:30:55;;;;;;;8.27;6.18;;;;;;;17.25;55.82;101087.97;10451816;28;20059;-61
2024/03/12 21:35:55;;;;;;;8.95;6.35;;;;;;;17.30;55.89;101086.34;10450334;28;20117;-61
2024/03/12 21:40:57;;;;;;;8.07;5.70;;;;;;;17.28;55.37;101094.63;10451543;28;20035;-61
2024/03/12 21:45:57;;;;;;;7.75;6.05;;;;;;;17.31;55.45;101094.09;10450815;28;20041;-61
2024/03/12 21:51:00;;;;;;;7.68;5.57;;;;;;;17.33;55.92;101091.94;10450927;28;20465;-60
2024/03/12 21:56:01;;;;;;;8.95;5.78;;;;;;;17.36;55.61;101090.59;10450217;28;20040;-61
2024/03/12 22:01:02;;;;;;;5.80;4.67;;;;;;;17.34;55.37;101085.50;10450918;28;20079;-60
2024/03/12 22:06:03;;;;;;;6.00;5.07;;;;;;;17.31;55.65;101075.34;10450517;28;20263;-61
2024/03/12 22:11:08;;;;;;;6.85;5.47;;;;;;;17.29;54.77;101069.47;10449976;28;20017;-61
2024/03/12 22:16:14;;;;;;;6.28;5.20;;;;;;;17.30;55.73;101078.31;10449881;28;20112;-61
2024/03/12 22:21:15;;;;;;;7.25;5.45;;;;;;;17.28;54.92;101070.53;10433098;28;20024;-61
2024/03/12 22:26:15;;;;;;;7.80;5.20;;;;;;;17.28;54.93;101067.84;10449483;28;20020;-61
2024/03/12 22:31:16;;;;;;;6.63;4.87;;;;;;;17.32;54.87;101063.53;10449448;28;20021;-61
2024/03/12 22:36:16;;;;;;;7.30;4.40;;;;;;;17.35;55.50;101062.19;10449056;28;20761;-61
2024/03/12 22:41:17;;;;;;;7.33;4.90;;;;;;;17.37;54.75;101074.22;10449177;28;20104;-61
2024/03/12 22:46:17;;;;;;;6.35;4.93;;;;;;;17.34;54.54;101074.78;10448588;28;20333;-61
2024/03/12 22:51:18;;;;;;;5.32;3.97;;;;;;;17.34;54.89;101071.31;10448682;28;20032;-60
2024/03/12 22:56:19;;;;;;;5.38;4.22;;;;;;;17.34;54.92;101069.44;10448649;28;20027;-60